sensor_id;sensor_type;location;lat;lon;timestamp;P1;durP1;ratioP1;P2;durP2;ratioP2
75814;SDS011;64451;45.574;14.224;2022-12-18T00:01:48;8.13;;;3.10;;
75814;SDS011;64451;45.574;14.224;2022-12-18T00:03:48;5.45;;;2.85;;
75814;SDS011;64451;45.574;14.224;2022-12-18T00:05:50;7.30;;;3.00;;
75814;SDS011;64451;45.574;14.224;2022-12-18T00:07:51;9.07;;;3.13;;
75814;SDS011;64451;45.574;14.224;2022-12-18T00:09:51;7.88;;;2.65;;
75814;SDS011;64451;45.574;14.224;2022-12-18T00:11:52;5.68;;;2.53;;
75814;SDS011;64451;45.574;14.224;2022-12-18T00:13:53;6.05;;;2.60;;
75814;SDS011;64451;45.574;14.224;2022-12-18T00:15:55;7.63;;;2.83;;
75814;SDS011;64451;45.574;14.224;2022-12-18T00:17:55;5.47;;;2.83;;
75814;SDS011;64451;45.574;14.224;2022-12-18T00:19:56;4.75;;;2.13;;
75814;SDS011;64451;45.574;14.224;2022-12-18T00:21:56;4.82;;;2.60;;
75814;SDS011;64451;45.574;14.224;2022-12-18T00:23:58;7.80;;;2.95;;
75814;SDS011;64451;45.574;14.224;2022-12-18T00:26:03;4.32;;;2.15;;
75814;SDS011;64451;45.574;14.224;2022-12-18T00:28:05;6.35;;;2.45;;
75814;SDS011;64451;45.574;14.224;2022-12-18T00:30:05;6.50;;;2.25;;
75814;SDS011;64451;45.574;14.224;2022-12-18T00:32:06;6.93;;;2.63;;
75814;SDS011;64451;45.574;14.224;2022-12-18T00:34:08;5.97;;;2.47;;
75814;SDS011;64451;45.574;14.224;2022-12-18T00:36:18;6.90;;;2.35;;
75814;SDS011;64451;45.574;14.224;2022-12-18T00:38:20;7.70;;;2.13;;
75814;SDS011;64451;45.574;14.224;2022-12-18T00:40:21;5.03;;;2.38;;
75814;SDS011;64451;45.574;14.224;2022-12-18T00:42:21;8.65;;;2.50;;
75814;SDS011;64451;45.574;14.224;2022-12-18T00:44:40;7.97;;;2.80;;
75814;SDS011;64451;45.574;14.224;2022-12-18T00:46:40;5.82;;;2.53;;
75814;SDS011;64451;45.574;14.224;2022-12-18T00:48:41;7.05;;;2.60;;
75814;SDS011;64451;45.574;14.224;2022-12-18T00:50:42;8.25;;;2.83;;
75814;SDS011;64451;45.574;14.224;2022-12-18T00:52:42;5.70;;;2.72;;
75814;SDS011;64451;45.574;14.224;2022-12-18T00:54:43;6.07;;;2.85;;
75814;SDS011;64451;45.574;14.224;2022-12-18T00:56:43;9.35;;;2.88;;
75814;SDS011;64451;45.574;14.224;2022-12-18T00:58:43;7.15;;;3.03;;
75814;SDS011;64451;45.574;14.224;2022-12-18T01:00:44;4.55;;;2.05;;
75814;SDS011;64451;45.574;14.224;2022-12-18T01:02:44;6.25;;;2.78;;
75814;SDS011;64451;45.574;14.224;2022-12-18T01:04:44;9.50;;;3.67;;
75814;SDS011;64451;45.574;14.224;2022-12-18T01:06:45;7.28;;;3.20;;
75814;SDS011;64451;45.574;14.224;2022-12-18T01:08:45;12.00;;;3.90;;
75814;SDS011;64451;45.574;14.224;2022-12-18T01:10:46;5.72;;;2.97;;
75814;SDS011;64451;45.574;14.224;2022-12-18T01:12:46;8.63;;;3.10;;
75814;SDS011;64451;45.574;14.224;2022-12-18T01:14:46;8.95;;;3.45;;
75814;SDS011;64451;45.574;14.224;2022-12-18T01:16:47;7.95;;;3.42;;
75814;SDS011;64451;45.574;14.224;2022-12-18T01:18:50;10.65;;;3.67;;
75814;SDS011;64451;45.574;14.224;2022-12-18T01:20:51;7.35;;;3.30;;
75814;SDS011;64451;45.574;14.224;2022-12-18T01:22:51;8.52;;;3.28;;
75814;SDS011;64451;45.574;14.224;2022-12-18T01:24:52;7.63;;;2.92;;
75814;SDS011;64451;45.574;14.224;2022-12-18T01:26:52;8.85;;;3.70;;
75814;SDS011;64451;45.574;14.224;2022-12-18T01:28:53;9.18;;;3.58;;
75814;SDS011;64451;45.574;14.224;2022-12-18T01:30:54;8.57;;;3.78;;
75814;SDS011;64451;45.574;14.224;2022-12-18T01:32:54;7.85;;;3.25;;
75814;SDS011;64451;45.574;14.224;2022-12-18T01:34:55;8.55;;;2.95;;
75814;SDS011;64451;45.574;14.224;2022-12-18T01:36:55;5.85;;;3.15;;
75814;SDS011;64451;45.574;14.224;2022-12-18T01:38:56;8.15;;;3.47;;
75814;SDS011;64451;45.574;14.224;2022-12-18T01:40:59;9.63;;;3.45;;
75814;SDS011;64451;45.574;14.224;2022-12-18T01:43:00;8.02;;;4.00;;
75814;SDS011;64451;45.574;14.224;2022-12-18T01:47:17;7.57;;;2.67;;
75814;SDS011;64451;45.574;14.224;2022-12-18T01:49:21;6.63;;;2.70;;
75814;SDS011;64451;45.574;14.224;2022-12-18T01:51:21;8.60;;;3.53;;
75814;SDS011;64451;45.574;14.224;2022-12-18T01:53:22;7.65;;;3.05;;
75814;SDS011;64451;45.574;14.224;2022-12-18T01:55:25;9.68;;;3.88;;
75814;SDS011;64451;45.574;14.224;2022-12-18T01:57:28;6.90;;;3.05;;
75814;SDS011;64451;45.574;14.224;2022-12-18T01:59:29;6.95;;;2.88;;
75814;SDS011;64451;45.574;14.224;2022-12-18T02:01:32;5.38;;;2.30;;
75814;SDS011;64451;45.574;14.224;2022-12-18T02:03:33;6.93;;;3.20;;
75814;SDS011;64451;45.574;14.224;2022-12-18T02:10:21;5.15;;;2.40;;
75814;SDS011;64451;45.574;14.224;2022-12-18T02:12:30;8.70;;;3.72;;
75814;SDS011;64451;45.574;14.224;2022-12-18T02:14:54;6.18;;;2.92;;
75814;SDS011;64451;45.574;14.224;2022-12-18T02:19:13;6.93;;;2.67;;
75814;SDS011;64451;45.574;14.224;2022-12-18T02:26:16;9.85;;;2.85;;
75814;SDS011;64451;45.574;14.224;2022-12-18T02:28:26;7.80;;;2.80;;
75814;SDS011;64451;45.574;14.224;2022-12-18T02:30:31;5.85;;;2.45;;
75814;SDS011;64451;45.574;14.224;2022-12-18T02:32:36;7.30;;;2.95;;
75814;SDS011;64451;45.574;14.224;2022-12-18T02:34:40;5.82;;;2.80;;
75814;SDS011;64451;45.574;14.224;2022-12-18T02:36:43;6.93;;;2.88;;
75814;SDS011;64451;45.574;14.224;2022-12-18T02:38:45;7.55;;;3.38;;
75814;SDS011;64451;45.574;14.224;2022-12-18T02:40:46;8.07;;;3.30;;
75814;SDS011;64451;45.574;14.224;2022-12-18T02:42:49;6.38;;;2.72;;
75814;SDS011;64451;45.574;14.224;2022-12-18T02:44:50;8.32;;;2.92;;
75814;SDS011;64451;45.574;14.224;2022-12-18T02:46:52;11.82;;;4.03;;
75814;SDS011;64451;45.574;14.224;2022-12-18T02:48:55;10.30;;;4.10;;
75814;SDS011;64451;45.574;14.224;2022-12-18T02:51:08;9.98;;;3.80;;
75814;SDS011;64451;45.574;14.224;2022-12-18T02:55:49;5.78;;;2.30;;
75814;SDS011;64451;45.574;14.224;2022-12-18T03:00:38;11.20;;;4.25;;
75814;SDS011;64451;45.574;14.224;2022-12-18T03:04:52;5.45;;;3.03;;
75814;SDS011;64451;45.574;14.224;2022-12-18T03:07:03;6.43;;;2.70;;
75814;SDS011;64451;45.574;14.224;2022-12-18T03:09:17;6.57;;;3.38;;
75814;SDS011;64451;45.574;14.224;2022-12-18T03:11:22;6.93;;;3.03;;
75814;SDS011;64451;45.574;14.224;2022-12-18T03:13:48;10.35;;;3.30;;
75814;SDS011;64451;45.574;14.224;2022-12-18T03:15:56;5.78;;;2.75;;
75814;SDS011;64451;45.574;14.224;2022-12-18T03:18:07;10.00;;;2.78;;
75814;SDS011;64451;45.574;14.224;2022-12-18T03:20:15;6.50;;;3.00;;
75814;SDS011;64451;45.574;14.224;2022-12-18T03:22:19;4.47;;;2.17;;
75814;SDS011;64451;45.574;14.224;2022-12-18T03:24:22;10.38;;;4.05;;
75814;SDS011;64451;45.574;14.224;2022-12-18T03:26:25;7.22;;;3.15;;
75814;SDS011;64451;45.574;14.224;2022-12-18T03:28:28;7.28;;;3.60;;
75814;SDS011;64451;45.574;14.224;2022-12-18T03:30:32;11.50;;;3.70;;
75814;SDS011;64451;45.574;14.224;2022-12-18T03:32:38;6.28;;;2.30;;
75814;SDS011;64451;45.574;14.224;2022-12-18T03:34:42;7.50;;;3.03;;
75814;SDS011;64451;45.574;14.224;2022-12-18T03:36:44;6.00;;;2.60;;
75814;SDS011;64451;45.574;14.224;2022-12-18T03:38:44;9.07;;;3.95;;
75814;SDS011;64451;45.574;14.224;2022-12-18T03:40:48;4.75;;;3.03;;
75814;SDS011;64451;45.574;14.224;2022-12-18T03:42:59;8.90;;;3.45;;
75814;SDS011;64451;45.574;14.224;2022-12-18T03:47:26;6.63;;;3.58;;
75814;SDS011;64451;45.574;14.224;2022-12-18T03:50:15;7.25;;;2.72;;
75814;SDS011;64451;45.574;14.224;2022-12-18T03:51:58;6.30;;;2.78;;
75814;SDS011;64451;45.574;14.224;2022-12-18T03:54:03;4.93;;;2.53;;
75814;SDS011;64451;45.574;14.224;2022-12-18T03:56:08;8.35;;;3.58;;
75814;SDS011;64451;45.574;14.224;2022-12-18T03:58:09;8.32;;;2.72;;
75814;SDS011;64451;45.574;14.224;2022-12-18T04:00:14;7.00;;;3.22;;
75814;SDS011;64451;45.574;14.224;2022-12-18T04:02:17;7.85;;;2.90;;
75814;SDS011;64451;45.574;14.224;2022-12-18T04:04:18;5.65;;;2.42;;
75814;SDS011;64451;45.574;14.224;2022-12-18T04:06:20;4.60;;;2.40;;
75814;SDS011;64451;45.574;14.224;2022-12-18T04:08:21;5.60;;;2.85;;
75814;SDS011;64451;45.574;14.224;2022-12-18T04:10:22;10.32;;;3.53;;
75814;SDS011;64451;45.574;14.224;2022-12-18T04:12:25;6.93;;;3.65;;
75814;SDS011;64451;45.574;14.224;2022-12-18T04:14:26;6.85;;;2.97;;
75814;SDS011;64451;45.574;14.224;2022-12-18T04:16:27;7.85;;;3.28;;
75814;SDS011;64451;45.574;14.224;2022-12-18T04:18:27;7.97;;;3.45;;
75814;SDS011;64451;45.574;14.224;2022-12-18T04:20:27;7.00;;;2.90;;
75814;SDS011;64451;45.574;14.224;2022-12-18T04:22:28;7.18;;;2.63;;
75814;SDS011;64451;45.574;14.224;2022-12-18T04:24:28;2.75;;;1.98;;
75814;SDS011;64451;45.574;14.224;2022-12-18T04:26:30;7.30;;;3.17;;
75814;SDS011;64451;45.574;14.224;2022-12-18T04:28:30;6.05;;;3.00;;
75814;SDS011;64451;45.574;14.224;2022-12-18T04:30:31;6.47;;;3.03;;
75814;SDS011;64451;45.574;14.224;2022-12-18T04:32:32;6.68;;;2.90;;
75814;SDS011;64451;45.574;14.224;2022-12-18T04:34:33;6.00;;;2.75;;
75814;SDS011;64451;45.574;14.224;2022-12-18T04:36:34;6.70;;;2.58;;
75814;SDS011;64451;45.574;14.224;2022-12-18T04:38:34;7.15;;;3.28;;
75814;SDS011;64451;45.574;14.224;2022-12-18T04:40:35;6.22;;;3.00;;
75814;SDS011;64451;45.574;14.224;2022-12-18T04:42:36;6.35;;;3.47;;
75814;SDS011;64451;45.574;14.224;2022-12-18T04:44:37;6.68;;;3.58;;
75814;SDS011;64451;45.574;14.224;2022-12-18T04:46:37;9.85;;;4.00;;
75814;SDS011;64451;45.574;14.224;2022-12-18T04:48:37;7.63;;;2.40;;
75814;SDS011;64451;45.574;14.224;2022-12-18T04:50:38;7.65;;;3.17;;
75814;SDS011;64451;45.574;14.224;2022-12-18T04:52:38;8.65;;;3.97;;
75814;SDS011;64451;45.574;14.224;2022-12-18T04:54:38;7.90;;;3.50;;
75814;SDS011;64451;45.574;14.224;2022-12-18T04:56:39;8.00;;;2.72;;
75814;SDS011;64451;45.574;14.224;2022-12-18T04:58:40;7.07;;;3.03;;
75814;SDS011;64451;45.574;14.224;2022-12-18T05:00:41;6.87;;;2.70;;
75814;SDS011;64451;45.574;14.224;2022-12-18T05:02:42;8.02;;;3.33;;
75814;SDS011;64451;45.574;14.224;2022-12-18T05:04:42;11.48;;;3.15;;
75814;SDS011;64451;45.574;14.224;2022-12-18T05:06:42;6.50;;;2.92;;
75814;SDS011;64451;45.574;14.224;2022-12-18T05:08:43;5.82;;;2.65;;
75814;SDS011;64451;45.574;14.224;2022-12-18T05:10:43;5.82;;;2.72;;
75814;SDS011;64451;45.574;14.224;2022-12-18T05:12:43;8.65;;;3.50;;
75814;SDS011;64451;45.574;14.224;2022-12-18T05:14:59;10.55;;;3.25;;
75814;SDS011;64451;45.574;14.224;2022-12-18T05:16:59;5.68;;;2.88;;
75814;SDS011;64451;45.574;14.224;2022-12-18T05:18:59;8.60;;;3.65;;
75814;SDS011;64451;45.574;14.224;2022-12-18T05:21:00;10.02;;;2.88;;
75814;SDS011;64451;45.574;14.224;2022-12-18T05:23:00;8.57;;;3.25;;
75814;SDS011;64451;45.574;14.224;2022-12-18T05:25:01;10.32;;;2.72;;
75814;SDS011;64451;45.574;14.224;2022-12-18T05:27:01;18.73;;;3.38;;
75814;SDS011;64451;45.574;14.224;2022-12-18T05:29:01;5.88;;;2.92;;
75814;SDS011;64451;45.574;14.224;2022-12-18T05:31:04;6.05;;;3.03;;
75814;SDS011;64451;45.574;14.224;2022-12-18T05:35:05;10.27;;;3.42;;
75814;SDS011;64451;45.574;14.224;2022-12-18T05:37:07;7.40;;;2.75;;
75814;SDS011;64451;45.574;14.224;2022-12-18T05:39:07;11.27;;;4.28;;
75814;SDS011;64451;45.574;14.224;2022-12-18T05:41:08;11.27;;;3.65;;
75814;SDS011;64451;45.574;14.224;2022-12-18T05:43:09;16.23;;;8.80;;
75814;SDS011;64451;45.574;14.224;2022-12-18T05:45:10;30.73;;;16.27;;
75814;SDS011;64451;45.574;14.224;2022-12-18T05:47:10;15.25;;;7.75;;
75814;SDS011;64451;45.574;14.224;2022-12-18T05:49:10;12.60;;;6.90;;
75814;SDS011;64451;45.574;14.224;2022-12-18T05:51:12;16.73;;;8.93;;
75814;SDS011;64451;45.574;14.224;2022-12-18T05:53:16;14.18;;;8.20;;
75814;SDS011;64451;45.574;14.224;2022-12-18T05:55:17;17.65;;;6.32;;
75814;SDS011;64451;45.574;14.224;2022-12-18T05:57:18;14.23;;;5.22;;
75814;SDS011;64451;45.574;14.224;2022-12-18T05:59:18;10.40;;;4.60;;
75814;SDS011;64451;45.574;14.224;2022-12-18T06:01:21;6.35;;;2.88;;
75814;SDS011;64451;45.574;14.224;2022-12-18T06:03:23;9.52;;;3.50;;
75814;SDS011;64451;45.574;14.224;2022-12-18T06:05:24;4.93;;;2.13;;
75814;SDS011;64451;45.574;14.224;2022-12-18T06:07:25;6.72;;;3.50;;
75814;SDS011;64451;45.574;14.224;2022-12-18T06:09:25;12.00;;;5.35;;
75814;SDS011;64451;45.574;14.224;2022-12-18T06:11:26;14.45;;;7.03;;
75814;SDS011;64451;45.574;14.224;2022-12-18T06:13:27;7.65;;;3.63;;
75814;SDS011;64451;45.574;14.224;2022-12-18T06:15:27;6.30;;;3.40;;
75814;SDS011;64451;45.574;14.224;2022-12-18T06:17:30;11.05;;;3.17;;
75814;SDS011;64451;45.574;14.224;2022-12-18T06:19:32;15.30;;;7.28;;
75814;SDS011;64451;45.574;14.224;2022-12-18T06:21:32;7.63;;;3.78;;
75814;SDS011;64451;45.574;14.224;2022-12-18T06:23:34;9.82;;;3.50;;
75814;SDS011;64451;45.574;14.224;2022-12-18T06:25:37;10.98;;;4.50;;
75814;SDS011;64451;45.574;14.224;2022-12-18T06:27:41;7.85;;;3.45;;
75814;SDS011;64451;45.574;14.224;2022-12-18T06:29:42;5.88;;;3.28;;
75814;SDS011;64451;45.574;14.224;2022-12-18T06:31:42;6.60;;;3.47;;
75814;SDS011;64451;45.574;14.224;2022-12-18T06:33:42;5.97;;;3.28;;
75814;SDS011;64451;45.574;14.224;2022-12-18T06:35:43;8.10;;;3.03;;
75814;SDS011;64451;45.574;14.224;2022-12-18T06:37:43;5.85;;;3.05;;
75814;SDS011;64451;45.574;14.224;2022-12-18T06:39:43;4.95;;;2.72;;
75814;SDS011;64451;45.574;14.224;2022-12-18T06:41:44;10.52;;;3.45;;
75814;SDS011;64451;45.574;14.224;2022-12-18T06:43:44;5.78;;;3.05;;
75814;SDS011;64451;45.574;14.224;2022-12-18T06:45:45;8.88;;;4.15;;
75814;SDS011;64451;45.574;14.224;2022-12-18T06:47:49;7.72;;;3.42;;
75814;SDS011;64451;45.574;14.224;2022-12-18T06:49:50;7.13;;;3.20;;
75814;SDS011;64451;45.574;14.224;2022-12-18T06:51:50;11.38;;;3.15;;
75814;SDS011;64451;45.574;14.224;2022-12-18T06:53:50;9.85;;;4.18;;
75814;SDS011;64451;45.574;14.224;2022-12-18T06:55:51;11.82;;;4.43;;
75814;SDS011;64451;45.574;14.224;2022-12-18T06:57:51;9.65;;;3.65;;
75814;SDS011;64451;45.574;14.224;2022-12-18T06:59:51;11.40;;;3.92;;
75814;SDS011;64451;45.574;14.224;2022-12-18T07:01:52;8.32;;;3.33;;
75814;SDS011;64451;45.574;14.224;2022-12-18T07:03:53;8.80;;;3.20;;
75814;SDS011;64451;45.574;14.224;2022-12-18T07:05:54;4.97;;;3.47;;
75814;SDS011;64451;45.574;14.224;2022-12-18T07:07:55;7.68;;;3.67;;
75814;SDS011;64451;45.574;14.224;2022-12-18T07:09:55;8.90;;;3.75;;
75814;SDS011;64451;45.574;14.224;2022-12-18T07:11:55;14.25;;;5.65;;
75814;SDS011;64451;45.574;14.224;2022-12-18T07:13:56;12.30;;;5.95;;
75814;SDS011;64451;45.574;14.224;2022-12-18T07:16:11;11.57;;;5.28;;
75814;SDS011;64451;45.574;14.224;2022-12-18T07:18:14;19.50;;;5.30;;
75814;SDS011;64451;45.574;14.224;2022-12-18T07:20:15;15.63;;;7.35;;
75814;SDS011;64451;45.574;14.224;2022-12-18T07:22:15;15.85;;;5.60;;
75814;SDS011;64451;45.574;14.224;2022-12-18T07:24:16;13.43;;;4.93;;
75814;SDS011;64451;45.574;14.224;2022-12-18T07:26:17;15.32;;;5.15;;
75814;SDS011;64451;45.574;14.224;2022-12-18T07:28:19;7.82;;;4.53;;
75814;SDS011;64451;45.574;14.224;2022-12-18T07:30:19;23.58;;;4.97;;
75814;SDS011;64451;45.574;14.224;2022-12-18T07:32:19;11.80;;;4.82;;
75814;SDS011;64451;45.574;14.224;2022-12-18T07:34:20;10.38;;;4.95;;
75814;SDS011;64451;45.574;14.224;2022-12-18T07:36:20;10.82;;;4.28;;
75814;SDS011;64451;45.574;14.224;2022-12-18T07:38:21;10.02;;;4.45;;
75814;SDS011;64451;45.574;14.224;2022-12-18T07:40:21;6.88;;;3.92;;
75814;SDS011;64451;45.574;14.224;2022-12-18T07:42:22;6.40;;;3.17;;
75814;SDS011;64451;45.574;14.224;2022-12-18T07:44:31;13.00;;;4.15;;
75814;SDS011;64451;45.574;14.224;2022-12-18T07:46:31;10.02;;;4.65;;
75814;SDS011;64451;45.574;14.224;2022-12-18T07:48:32;8.55;;;4.18;;
75814;SDS011;64451;45.574;14.224;2022-12-18T07:50:32;12.00;;;4.47;;
75814;SDS011;64451;45.574;14.224;2022-12-18T07:52:32;12.00;;;4.32;;
75814;SDS011;64451;45.574;14.224;2022-12-18T07:54:33;21.75;;;9.77;;
75814;SDS011;64451;45.574;14.224;2022-12-18T07:56:33;17.10;;;7.88;;
75814;SDS011;64451;45.574;14.224;2022-12-18T07:58:34;22.92;;;9.95;;
75814;SDS011;64451;45.574;14.224;2022-12-18T08:00:35;30.80;;;12.85;;
75814;SDS011;64451;45.574;14.224;2022-12-18T08:02:35;13.77;;;6.13;;
75814;SDS011;64451;45.574;14.224;2022-12-18T08:04:35;28.67;;;6.35;;
75814;SDS011;64451;45.574;14.224;2022-12-18T08:06:36;15.93;;;8.10;;
75814;SDS011;64451;45.574;14.224;2022-12-18T08:08:36;72.60;;;24.77;;
75814;SDS011;64451;45.574;14.224;2022-12-18T08:10:37;11.55;;;5.47;;
75814;SDS011;64451;45.574;14.224;2022-12-18T08:12:37;15.45;;;6.63;;
75814;SDS011;64451;45.574;14.224;2022-12-18T08:14:38;12.55;;;4.85;;
75814;SDS011;64451;45.574;14.224;2022-12-18T08:16:38;9.48;;;4.75;;
75814;SDS011;64451;45.574;14.224;2022-12-18T08:18:38;11.52;;;5.43;;
75814;SDS011;64451;45.574;14.224;2022-12-18T08:20:42;20.52;;;8.82;;
75814;SDS011;64451;45.574;14.224;2022-12-18T08:22:42;21.05;;;9.00;;
75814;SDS011;64451;45.574;14.224;2022-12-18T08:24:42;15.98;;;8.35;;
75814;SDS011;64451;45.574;14.224;2022-12-18T08:26:43;13.15;;;5.95;;
75814;SDS011;64451;45.574;14.224;2022-12-18T08:28:43;16.35;;;6.35;;
75814;SDS011;64451;45.574;14.224;2022-12-18T08:30:43;14.57;;;7.10;;
75814;SDS011;64451;45.574;14.224;2022-12-18T08:32:44;16.40;;;7.13;;
75814;SDS011;64451;45.574;14.224;2022-12-18T08:34:44;16.17;;;8.40;;
75814;SDS011;64451;45.574;14.224;2022-12-18T08:36:44;13.10;;;6.35;;
75814;SDS011;64451;45.574;14.224;2022-12-18T08:38:45;20.10;;;8.02;;
75814;SDS011;64451;45.574;14.224;2022-12-18T08:40:46;18.65;;;7.78;;
75814;SDS011;64451;45.574;14.224;2022-12-18T08:42:46;18.60;;;8.50;;
75814;SDS011;64451;45.574;14.224;2022-12-18T08:45:05;17.33;;;8.45;;
75814;SDS011;64451;45.574;14.224;2022-12-18T08:47:06;15.75;;;7.43;;
75814;SDS011;64451;45.574;14.224;2022-12-18T08:49:07;10.30;;;5.25;;
75814;SDS011;64451;45.574;14.224;2022-12-18T08:51:09;15.48;;;6.68;;
75814;SDS011;64451;45.574;14.224;2022-12-18T08:53:09;14.27;;;6.15;;
75814;SDS011;64451;45.574;14.224;2022-12-18T08:55:09;12.50;;;5.45;;
75814;SDS011;64451;45.574;14.224;2022-12-18T08:57:10;12.40;;;4.53;;
75814;SDS011;64451;45.574;14.224;2022-12-18T08:59:10;17.58;;;7.78;;
75814;SDS011;64451;45.574;14.224;2022-12-18T09:01:11;44.88;;;17.20;;
75814;SDS011;64451;45.574;14.224;2022-12-18T09:03:13;24.30;;;9.65;;
75814;SDS011;64451;45.574;14.224;2022-12-18T09:05:14;15.50;;;6.93;;
75814;SDS011;64451;45.574;14.224;2022-12-18T09:07:14;13.70;;;6.75;;
75814;SDS011;64451;45.574;14.224;2022-12-18T09:09:14;13.02;;;6.60;;
75814;SDS011;64451;45.574;14.224;2022-12-18T09:11:19;14.77;;;6.40;;
75814;SDS011;64451;45.574;14.224;2022-12-18T09:13:24;11.48;;;5.45;;
75814;SDS011;64451;45.574;14.224;2022-12-18T09:15:24;11.23;;;5.80;;
75814;SDS011;64451;45.574;14.224;2022-12-18T09:17:25;17.45;;;6.32;;
75814;SDS011;64451;45.574;14.224;2022-12-18T09:19:26;12.63;;;4.93;;
75814;SDS011;64451;45.574;14.224;2022-12-18T09:21:27;13.35;;;6.07;;
75814;SDS011;64451;45.574;14.224;2022-12-18T09:23:29;13.00;;;6.97;;
75814;SDS011;64451;45.574;14.224;2022-12-18T09:25:30;15.90;;;8.15;;
75814;SDS011;64451;45.574;14.224;2022-12-18T09:27:35;13.75;;;6.93;;
75814;SDS011;64451;45.574;14.224;2022-12-18T09:29:36;11.15;;;6.07;;
75814;SDS011;64451;45.574;14.224;2022-12-18T09:31:36;11.55;;;5.30;;
75814;SDS011;64451;45.574;14.224;2022-12-18T09:33:38;12.80;;;6.55;;
75814;SDS011;64451;45.574;14.224;2022-12-18T09:35:38;10.55;;;5.85;;
75814;SDS011;64451;45.574;14.224;2022-12-18T09:37:40;10.80;;;5.20;;
75814;SDS011;64451;45.574;14.224;2022-12-18T09:39:41;15.27;;;6.63;;
75814;SDS011;64451;45.574;14.224;2022-12-18T09:41:52;15.00;;;6.60;;
75814;SDS011;64451;45.574;14.224;2022-12-18T09:44:01;12.52;;;7.22;;
75814;SDS011;64451;45.574;14.224;2022-12-18T09:46:10;12.73;;;5.75;;
75814;SDS011;64451;45.574;14.224;2022-12-18T09:48:23;21.88;;;9.02;;
75814;SDS011;64451;45.574;14.224;2022-12-18T09:50:34;14.65;;;7.32;;
75814;SDS011;64451;45.574;14.224;2022-12-18T09:52:43;12.77;;;6.35;;
75814;SDS011;64451;45.574;14.224;2022-12-18T09:55:11;13.85;;;8.57;;
75814;SDS011;64451;45.574;14.224;2022-12-18T09:57:17;14.80;;;7.07;;
75814;SDS011;64451;45.574;14.224;2022-12-18T09:59:24;13.95;;;5.72;;
75814;SDS011;64451;45.574;14.224;2022-12-18T10:01:30;14.88;;;7.35;;
75814;SDS011;64451;45.574;14.224;2022-12-18T10:03:32;14.55;;;6.55;;
75814;SDS011;64451;45.574;14.224;2022-12-18T10:10:21;13.25;;;5.30;;
75814;SDS011;64451;45.574;14.224;2022-12-18T10:12:33;14.52;;;6.45;;
75814;SDS011;64451;45.574;14.224;2022-12-18T10:21:56;8.23;;;4.00;;
75814;SDS011;64451;45.574;14.224;2022-12-18T10:26:21;7.68;;;3.05;;
75814;SDS011;64451;45.574;14.224;2022-12-18T10:28:22;7.57;;;3.38;;
75814;SDS011;64451;45.574;14.224;2022-12-18T10:30:24;12.73;;;3.40;;
75814;SDS011;64451;45.574;14.224;2022-12-18T10:32:27;6.57;;;3.53;;
75814;SDS011;64451;45.574;14.224;2022-12-18T10:34:28;9.68;;;3.65;;
75814;SDS011;64451;45.574;14.224;2022-12-18T10:36:29;8.07;;;3.25;;
75814;SDS011;64451;45.574;14.224;2022-12-18T10:38:30;9.32;;;3.85;;
75814;SDS011;64451;45.574;14.224;2022-12-18T10:40:32;10.40;;;3.40;;
75814;SDS011;64451;45.574;14.224;2022-12-18T10:42:36;10.75;;;3.72;;
75814;SDS011;64451;45.574;14.224;2022-12-18T10:44:37;7.05;;;2.80;;
75814;SDS011;64451;45.574;14.224;2022-12-18T10:46:38;7.65;;;3.42;;
75814;SDS011;64451;45.574;14.224;2022-12-18T10:50:39;8.63;;;3.38;;
75814;SDS011;64451;45.574;14.224;2022-12-18T10:52:39;8.55;;;3.10;;
75814;SDS011;64451;45.574;14.224;2022-12-18T10:54:40;8.88;;;3.72;;
75814;SDS011;64451;45.574;14.224;2022-12-18T10:56:46;8.88;;;3.60;;
75814;SDS011;64451;45.574;14.224;2022-12-18T10:58:55;8.38;;;3.67;;
75814;SDS011;64451;45.574;14.224;2022-12-18T11:01:05;8.00;;;3.03;;
75814;SDS011;64451;45.574;14.224;2022-12-18T11:03:14;10.10;;;3.60;;
75814;SDS011;64451;45.574;14.224;2022-12-18T11:05:31;8.35;;;3.42;;
75814;SDS011;64451;45.574;14.224;2022-12-18T11:07:47;9.68;;;3.78;;
75814;SDS011;64451;45.574;14.224;2022-12-18T11:09:59;6.47;;;2.92;;
75814;SDS011;64451;45.574;14.224;2022-12-18T11:12:04;8.85;;;3.90;;
75814;SDS011;64451;45.574;14.224;2022-12-18T11:14:17;7.05;;;3.05;;
75814;SDS011;64451;45.574;14.224;2022-12-18T11:16:22;7.00;;;3.13;;
75814;SDS011;64451;45.574;14.224;2022-12-18T11:18:30;10.05;;;3.95;;
75814;SDS011;64451;45.574;14.224;2022-12-18T11:20:36;8.35;;;3.33;;
75814;SDS011;64451;45.574;14.224;2022-12-18T11:22:36;8.57;;;3.70;;
75814;SDS011;64451;45.574;14.224;2022-12-18T11:24:41;7.82;;;3.10;;
75814;SDS011;64451;45.574;14.224;2022-12-18T11:26:41;9.50;;;3.28;;
75814;SDS011;64451;45.574;14.224;2022-12-18T11:28:49;7.28;;;3.05;;
75814;SDS011;64451;45.574;14.224;2022-12-18T11:33:20;9.25;;;3.47;;
75814;SDS011;64451;45.574;14.224;2022-12-18T11:38:04;6.10;;;2.88;;
75814;SDS011;64451;45.574;14.224;2022-12-18T11:40:21;5.13;;;2.53;;
75814;SDS011;64451;45.574;14.224;2022-12-18T11:42:30;8.55;;;2.72;;
75814;SDS011;64451;45.574;14.224;2022-12-18T11:47:01;9.05;;;2.88;;
75814;SDS011;64451;45.574;14.224;2022-12-18T11:49:32;4.20;;;1.83;;
75814;SDS011;64451;45.574;14.224;2022-12-18T11:51:37;7.65;;;2.60;;
75814;SDS011;64451;45.574;14.224;2022-12-18T11:53:59;6.75;;;2.55;;
75814;SDS011;64451;45.574;14.224;2022-12-18T12:00:20;4.80;;;2.20;;
75814;SDS011;64451;45.574;14.224;2022-12-18T12:07:17;7.65;;;2.75;;
75814;SDS011;64451;45.574;14.224;2022-12-18T12:09:41;5.93;;;2.70;;
75814;SDS011;64451;45.574;14.224;2022-12-18T12:14:50;5.82;;;2.65;;
75814;SDS011;64451;45.574;14.224;2022-12-18T12:17:18;10.20;;;3.60;;
75814;SDS011;64451;45.574;14.224;2022-12-18T12:19:32;9.25;;;3.38;;
75814;SDS011;64451;45.574;14.224;2022-12-18T12:21:42;8.10;;;2.88;;
75814;SDS011;64451;45.574;14.224;2022-12-18T12:26:33;5.75;;;2.30;;
75814;SDS011;64451;45.574;14.224;2022-12-18T12:28:57;7.30;;;3.13;;
75814;SDS011;64451;45.574;14.224;2022-12-18T12:33:15;13.07;;;3.88;;
75814;SDS011;64451;45.574;14.224;2022-12-18T12:37:34;9.23;;;3.60;;
75814;SDS011;64451;45.574;14.224;2022-12-18T12:39:55;9.07;;;3.67;;
75814;SDS011;64451;45.574;14.224;2022-12-18T12:41:56;10.05;;;3.55;;
75814;SDS011;64451;45.574;14.224;2022-12-18T12:44:18;5.45;;;2.67;;
75814;SDS011;64451;45.574;14.224;2022-12-18T12:46:25;9.55;;;3.88;;
75814;SDS011;64451;45.574;14.224;2022-12-18T12:50:45;8.23;;;3.40;;
75814;SDS011;64451;45.574;14.224;2022-12-18T12:52:49;8.35;;;4.07;;
75814;SDS011;64451;45.574;14.224;2022-12-18T12:54:52;8.80;;;3.55;;
75814;SDS011;64451;45.574;14.224;2022-12-18T12:57:09;8.43;;;3.72;;
75814;SDS011;64451;45.574;14.224;2022-12-18T13:04:12;6.38;;;2.92;;
75814;SDS011;64451;45.574;14.224;2022-12-18T13:08:53;6.82;;;3.42;;
75814;SDS011;64451;45.574;14.224;2022-12-18T13:10:59;8.23;;;3.30;;
75814;SDS011;64451;45.574;14.224;2022-12-18T13:13:20;9.50;;;3.10;;
75814;SDS011;64451;45.574;14.224;2022-12-18T13:15:21;8.98;;;3.80;;
75814;SDS011;64451;45.574;14.224;2022-12-18T13:17:39;10.88;;;3.85;;
75814;SDS011;64451;45.574;14.224;2022-12-18T13:19:40;6.25;;;2.85;;
75814;SDS011;64451;45.574;14.224;2022-12-18T13:21:40;9.40;;;3.42;;
75814;SDS011;64451;45.574;14.224;2022-12-18T13:23:40;9.50;;;3.85;;
75814;SDS011;64451;45.574;14.224;2022-12-18T13:25:41;7.95;;;3.60;;
75814;SDS011;64451;45.574;14.224;2022-12-18T13:27:46;11.93;;;3.03;;
75814;SDS011;64451;45.574;14.224;2022-12-18T13:29:57;7.07;;;3.13;;